Time;durP1;ratioP1;P1;durP2;ratioP2;P2;SDS_P1;SDS_P2;PMS_P1;PMS_P2;Temp;Humidity;BMP_temperature;BMP_pressure;BME280_temperature;BME280_humidity;BME280_pressure;Samples;Min_cycle;Max_cycle;Signal;HPM_P1;HPM_P2
2022/06/07 00:00:59;;;;;;;7.28;3.65;;;;;;;13.27;82.47;99497.38;5116853;27;20043;-42
2022/06/07 00:03:26;;;;;;;7.72;3.20;;;;;;;13.27;82.32;99503.44;5131176;27;20061;-41
2022/06/07 00:05:52;;;;;;;7.43;3.63;;;;;;;13.20;82.21;99486.38;5132706;27;20510;-42
2022/06/07 00:08:18;;;;;;;6.05;3.13;;;;;;;13.26;82.01;99498.28;5131575;27;20091;-42
2022/06/07 00:10:45;;;;;;;5.85;3.58;;;;;;;13.22;81.95;99492.38;5121621;27;20122;-42
2022/06/07 00:13:12;;;;;;;5.03;3.20;;;;;;;13.30;81.77;99510.25;5133406;27;20038;-42
2022/06/07 00:15:41;;;;;;;3.97;2.83;;;;;;;13.30;81.72;99502.44;5114482;27;20043;-41
2022/06/07 00:18:08;;;;;;;;;;;;;;;13.28;81.56;99512.13;5094455;28;20058;-41
2022/06/07 00:20:36;;;;;;;7.88;2.95;;;;;;;13.24;80.87;99514.00;5112731;27;19926;-42
2022/06/07 00:23:07;;;;;;;9.15;2.75;;;;;;;13.23;81.00;99516.72;5113882;27;20059;-41
2022/06/07 00:25:33;;;;;;;4.38;2.83;;;;;;;13.16;79.91;99503.09;5121764;27;20481;-41
2022/06/07 00:28:01;;;;;;;8.15;3.08;;;;;;;13.23;79.53;99508.88;5131948;27;20039;-41
2022/06/07 00:30:28;;;;;;;5.53;2.75;;;;;;;13.07;79.02;99480.88;5122647;27;20035;-42
2022/06/07 00:32:54;;;;;;;5.00;2.85;;;;;;;13.17;78.50;99496.97;5109267;28;20048;-41
2022/06/07 00:35:21;;;;;;;6.55;3.15;;;;;;;13.19;77.87;99510.78;5125235;27;20061;-42
2022/06/07 00:37:47;;;;;;;6.70;2.70;;;;;;;13.20;77.39;99501.19;5130752;27;20518;-41
2022/06/07 00:40:14;;;;;;;4.78;2.80;;;;;;;13.20;76.60;99503.78;5125727;27;20047;-39
2022/06/07 00:42:40;;;;;;;5.97;2.72;;;;;;;13.19;76.21;99513.38;5131369;27;20534;-42
2022/06/07 00:45:22;;;;;;;18.08;3.40;;;;;;;13.18;75.91;99505.66;5127258;27;20534;-42
2022/06/07 00:47:48;;;;;;;7.15;2.90;;;;;;;13.16;75.40;99508.31;5093624;28;20039;-42
2022/06/07 00:50:18;;;;;;;4.60;2.65;;;;;;;13.14;74.85;99511.00;5104960;27;20395;-41
2022/06/07 00:52:43;;;;;;;;;;;;;;;13.13;74.54;99505.88;5132702;27;20125;-40
2022/06/07 00:55:09;;;;;;;8.02;2.60;;;;;;;13.11;74.16;99507.66;5129214;27;20030;-42
2022/06/07 00:57:50;;;;;;;4.63;2.45;;;;;;;13.08;73.54;99507.81;5128595;27;20077;-42
2022/06/07 01:00:26;;;;;;;5.57;2.72;;;;;;;12.94;73.27;99491.94;5131925;27;20039;-41
2022/06/07 01:02:55;;;;;;;4.18;2.42;;;;;;;13.05;73.45;99505.34;5127393;27;20514;-41
2022/06/07 01:05:21;;;;;;;4.90;2.50;;;;;;;13.04;73.22;99512.31;5110611;28;20067;-42
2022/06/07 01:10:44;;;;;;;5.35;2.42;;;;;;;12.97;73.16;99510.94;5111213;27;20130;-41
2022/06/07 01:13:19;;;;;;;9.13;2.60;;;;;;;12.91;72.49;99502.53;5148322;27;20046;-47
2022/06/07 01:15:46;;;;;;;5.15;2.55;;;;;;;12.90;72.24;99509.53;5126945;27;20084;-42
2022/06/07 01:18:16;;;;;;;3.45;2.08;;;;;;;12.90;71.41;99506.06;5110423;28;20047;-41
2022/06/07 01:20:42;;;;;;;6.18;2.00;;;;;;;12.86;71.24;99502.75;5121527;27;20488;-42
2022/06/07 01:23:08;;;;;;;3.72;2.35;;;;;;;12.91;71.20;99505.16;5111545;28;20067;-42
2022/06/07 01:25:35;;;;;;;4.40;2.30;;;;;;;12.82;71.36;99500.38;5115607;27;20051;-41
2022/06/07 01:28:02;;;;;;;3.95;2.20;;;;;;;12.86;71.40;99515.81;5110425;28;20079;-41
2022/06/07 01:30:28;;;;;;;3.88;1.88;;;;;;;12.84;71.39;99514.16;5117620;27;20043;-41
2022/06/07 01:32:55;;;;;;;6.05;2.35;;;;;;;12.83;70.73;99515.06;5116191;27;20401;-41
2022/06/07 01:35:20;;;;;;;5.63;2.40;;;;;;;12.82;70.61;99511.66;5110278;28;20043;-41
2022/06/07 01:37:46;;;;;;;9.80;2.35;;;;;;;12.80;70.64;99513.47;5144304;27;20112;-41
2022/06/07 01:42:56;;;;;;;6.68;2.22;;;;;;;12.79;69.84;99508.31;5126650;28;20071;-41
2022/06/07 01:45:22;;;;;;;7.10;2.13;;;;;;;12.77;69.59;99516.19;5113184;28;20117;-41
2022/06/07 01:47:50;;;;;;;4.10;2.00;;;;;;;12.76;69.56;99514.53;5109931;28;20512;-42
2022/06/07 01:50:17;;;;;;;7.03;2.13;;;;;;;12.76;69.09;99521.50;5078394;28;20146;-42
2022/06/07 01:52:43;;;;;;;11.13;2.45;;;;;;;12.67;69.36;99499.28;5146470;27;20554;-42
2022/06/07 01:55:16;;;;;;;5.55;2.22;;;;;;;12.62;69.00;99504.72;5147397;27;20046;-42
2022/06/07 01:57:54;;;;;;;5.40;1.93;;;;;;;12.71;68.34;99524.34;5114953;28;20461;-42
2022/06/07 02:00:20;;;;;;;9.30;2.53;;;;;;;12.70;68.45;99523.50;5122359;28;20323;-41
2022/06/07 02:02:48;;;;;;;6.57;3.25;;;;;;;12.62;68.27;99515.16;5110032;28;20058;-42
2022/06/07 02:05:15;;;;;;;10.25;4.15;;;;;;;12.69;67.90;99526.16;5144244;27;20048;-41
2022/06/07 02:07:48;;;;;;;10.27;4.40;;;;;;;12.69;67.77;99529.63;5111470;28;20467;-40
2022/06/07 02:10:18;;;;;;;20.88;8.02;;;;;;;12.61;67.75;99525.66;5150908;27;20059;-41
2022/06/07 02:12:44;;;;;;;15.38;6.45;;;;;;;12.62;67.45;99519.50;5133174;27;20062;-41
2022/06/07 02:15:10;;;;;;;20.90;8.65;;;;;;;12.72;67.74;99536.44;5115398;27;20047;-41
2022/06/07 02:17:36;;;;;;;29.13;11.00;;;;;;;12.72;67.20;99537.28;5113860;28;20036;-41
2022/06/07 02:20:37;;;;;;;31.13;12.63;;;;;;;12.74;67.04;99526.78;5076050;28;20036;-41
2022/06/07 02:23:04;;;;;;;26.13;12.65;;;;;;;12.74;66.59;99537.22;5120720;27;20054;-41
2022/06/07 02:25:31;;;;;;;33.15;13.25;;;;;;;12.78;66.49;99541.38;5130627;27;20426;-41
2022/06/07 02:27:57;;;;;;;28.52;14.23;;;;;;;12.80;66.50;99536.09;5108961;27;20099;-42
2022/06/07 02:30:22;;;;;;;37.03;15.07;;;;;;;12.79;66.30;99548.28;5134248;27;20039;-42
2022/06/07 02:32:48;;;;;;;32.85;15.07;;;;;;;12.81;65.87;99545.63;5135092;27;20459;-42
2022/06/07 02:35:14;;;;;;;26.27;14.73;;;;;;;12.80;65.68;99544.78;5134157;27;20054;-41
2022/06/07 02:37:40;;;;;;;27.95;13.98;;;;;;;12.78;65.28;99544.00;5134083;27;20035;-42
2022/06/07 02:40:07;;;;;;;23.67;13.23;;;;;;;12.80;65.35;99544.78;5134636;27;20096;-42
2022/06/07 02:42:33;;;;;;;24.65;12.95;;;;;;;12.75;65.19;99546.75;5133200;27;20035;-42
2022/06/07 02:44:59;;;;;;;21.85;11.73;;;;;;;12.72;65.13;99537.28;5133261;27;20537;-47
2022/06/07 02:47:25;;;;;;;23.98;11.93;;;;;;;12.82;65.17;99552.53;5130287;27;20445;-40
2022/06/07 02:49:57;;;;;;;19.83;10.82;;;;;;;12.85;65.15;99558.47;5132193;27;20043;-42
2022/06/07 02:52:23;;;;;;;27.02;10.48;;;;;;;12.87;64.84;99558.41;5134913;27;20060;-41
2022/06/07 02:55:12;;;;;;;19.30;9.07;;;;;;;12.80;64.81;99539.56;5133111;27;20043;-42
2022/06/07 02:57:38;;;;;;;15.18;6.63;;;;;;;12.87;64.65;99561.00;5113886;27;20039;-41
2022/06/07 03:00:06;;;;;;;7.88;3.38;;;;;;;12.89;64.38;99561.75;5112530;27;20421;-41
2022/06/07 03:02:32;;;;;;;7.43;3.92;;;;;;;12.91;63.45;99558.19;5126919;27;20054;-41
2022/06/07 03:04:59;;;;;;;9.65;4.43;;;;;;;12.96;63.34;99557.97;5132012;27;20075;-41
2022/06/07 03:07:26;;;;;;;9.23;2.85;;;;;;;12.98;63.06;99561.38;5133082;27;20570;-42
2022/06/07 03:09:53;;;;;;;7.50;2.50;;;;;;;13.00;63.04;99569.94;5133043;27;20043;-41
2022/06/07 03:12:18;;;;;;;5.07;2.40;;;;;;;13.02;62.51;99563.75;5133246;27;20088;-42
2022/06/07 03:14:44;;;;;;;5.25;1.88;;;;;;;13.04;62.08;99563.66;5128906;27;20482;-41
2022/06/07 03:17:10;;;;;;;4.20;1.88;;;;;;;12.98;61.80;99556.16;5128613;27;20040;-41
2022/06/07 03:19:36;;;;;;;6.43;2.40;;;;;;;13.07;61.64;99566.16;5113284;28;20050;-42
2022/06/07 03:22:04;;;;;;;6.95;1.65;;;;;;;13.09;60.95;99572.97;5123546;27;20096;-42
2022/06/07 03:24:31;;;;;;;3.80;1.83;;;;;;;13.12;60.74;99569.44;5092117;28;20066;-42
2022/06/07 03:26:57;;;;;;;3.05;1.38;;;;;;;13.15;60.84;99567.50;5132918;27;20514;-42
2022/06/07 03:29:24;;;;;;;3.90;1.70;;;;;;;13.17;60.39;99577.03;5131420;27;20049;-43
2022/06/07 03:31:50;;;;;;;2.78;1.60;;;;;;;13.19;60.16;99576.03;5123080;27;20065;-41
2022/06/07 03:34:20;;;;;;;6.60;1.63;;;;;;;13.22;60.14;99570.69;5146639;27;20092;-40
2022/06/07 03:36:46;;;;;;;7.07;1.90;;;;;;;13.26;60.06;99569.63;5117125;27;20047;-42
2022/06/07 03:39:11;;;;;;;8.50;1.50;;;;;;;13.23;60.21;99566.31;5132843;27;20557;-43
2022/06/07 03:41:43;;;;;;;4.13;1.75;;;;;;;13.22;60.28;99557.63;5132270;27;20047;-41
2022/06/07 03:44:17;;;;;;;12.82;1.77;;;;;;;13.34;60.15;99580.56;5114791;27;20070;-42
2022/06/07 03:46:49;;;;;;;6.00;1.80;;;;;;;13.37;60.34;99571.72;5133222;27;20136;-41
2022/06/07 03:49:18;;;;;;;4.07;1.58;;;;;;;13.38;60.07;99574.28;5128910;27;20102;-42
2022/06/07 03:51:44;;;;;;;4.72;1.70;;;;;;;13.42;60.06;99574.97;5123129;27;20078;-42
2022/06/07 03:54:10;;;;;;;4.40;1.67;;;;;;;13.45;60.40;99570.44;5132479;27;20050;-41
2022/06/07 03:56:38;;;;;;;6.43;1.42;;;;;;;13.43;60.07;99566.22;5112832;27;20035;-42
2022/06/07 03:59:07;;;;;;;5.63;1.52;;;;;;;13.49;60.01;99579.00;5132554;27;20049;-41
2022/06/07 04:01:32;;;;;;;2.70;1.50;;;;;;;13.48;60.24;99567.69;5148661;27;20134;-42
2022/06/07 04:04:05;;;;;;;3.53;1.50;;;;;;;13.47;60.14;99565.16;5131280;27;20039;-42
2022/06/07 04:06:34;;;;;;;5.32;1.48;;;;;;;13.64;60.05;99583.47;5132229;27;20027;-41
2022/06/07 04:09:07;;;;;;;4.13;1.50;;;;;;;13.67;60.21;99587.69;5131365;27;20039;-41
2022/06/07 04:11:39;;;;;;;4.82;2.15;;;;;;;13.70;59.92;99579.72;5148505;27;20031;-41
2022/06/07 04:14:05;;;;;;;5.30;1.60;;;;;;;13.75;59.58;99575.13;5128319;27;20032;-41
2022/06/07 04:16:31;;;;;;;4.85;1.48;;;;;;;13.78;59.57;99582.78;5124960;27;20118;-41
2022/06/07 04:19:11;;;;;;;6.13;1.67;;;;;;;13.83;59.54;99578.19;5131957;27;20062;-41
2022/06/07 04:21:38;;;;;;;4.80;1.58;;;;;;;13.87;59.55;99585.78;5130196;27;20051;-42
2022/06/07 04:24:27;;;;;;;;;;;;;;;13.95;59.13;99582.81;5125877;27;20099;-41
2022/06/07 04:26:53;;;;;;;3.47;1.20;;;;;;;13.98;58.94;99580.03;5131768;27;19915;-42
2022/06/07 04:29:19;;;;;;;12.13;1.48;;;;;;;13.94;58.10;99573.28;5142718;27;20046;-43
2022/06/07 04:31:47;;;;;;;3.15;1.17;;;;;;;13.98;57.46;99561.75;5112182;27;20046;-42
2022/06/07 04:34:14;;;;;;;1.98;1.13;;;;;;;14.09;57.26;99572.50;5111318;28;20174;-43
2022/06/07 04:36:42;;;;;;;3.92;1.20;;;;;;;14.14;57.37;99580.09;5112311;28;20039;-41
2022/06/07 04:39:10;;;;;;;5.55;1.35;;;;;;;14.13;57.19;99560.16;5110921;28;20051;-42
2022/06/07 04:41:41;;;;;;;4.32;1.20;;;;;;;14.26;56.91;99577.72;5113430;27;20066;-41
2022/06/07 04:44:10;;;;;;;2.83;1.10;;;;;;;14.29;56.01;99580.19;5129790;27;20083;-41
2022/06/07 04:46:36;;;;;;;3.67;1.40;;;;;;;14.34;56.03;99586.03;5128045;27;20121;-42
2022/06/07 04:49:04;;;;;;;3.08;1.23;;;;;;;14.43;56.07;99576.06;5093798;28;20494;-42
2022/06/07 04:51:34;;;;;;;5.43;1.10;;;;;;;14.49;55.35;99581.81;5110661;27;20050;-43
2022/06/07 04:54:12;;;;;;;7.95;1.40;;;;;;;14.58;55.29;99575.25;5098386;28;20514;-41
2022/06/07 04:56:42;;;;;;;5.38;1.23;;;;;;;14.64;55.42;99575.78;5119427;27;20083;-41
2022/06/07 04:59:09;;;;;;;2.25;1.00;;;;;;;14.70;55.13;99574.63;5113655;27;20043;-41
2022/06/07 05:01:41;;;;;;;4.28;1.20;;;;;;;14.75;54.61;99581.31;5130675;27;20067;-42
2022/06/07 05:04:13;;;;;;;5.30;1.63;;;;;;;14.83;54.86;99575.66;5114072;27;20042;-41
2022/06/07 05:06:43;;;;;;;2.17;1.30;;;;;;;14.89;54.07;99572.69;5106937;27;20522;-41
2022/06/07 05:09:32;;;;;;;4.75;1.00;;;;;;;14.89;53.38;99569.25;5093918;28;20051;-42
2022/06/07 05:12:08;;;;;;;3.47;1.10;;;;;;;15.02;52.89;99580.75;5113113;27;20036;-41
2022/06/07 05:14:38;;;;;;;5.20;1.10;;;;;;;15.09;52.31;99575.09;5098331;28;20042;-41
2022/06/07 05:17:04;;;;;;;2.00;1.00;;;;;;;15.17;51.98;99574.69;5111977;28;20043;-42
2022/06/07 05:19:33;;;;;;;5.20;1.20;;;;;;;15.27;51.96;99573.25;5110211;28;20075;-47
2022/06/07 05:22:06;;;;;;;3.08;1.00;;;;;;;15.37;51.95;99578.81;5101802;28;20039;-42
2022/06/07 05:24:37;;;;;;;3.90;1.50;;;;;;;15.46;51.58;99573.91;5131486;27;20498;-41
2022/06/07 05:27:04;;;;;;;1.60;1.08;;;;;;;15.55;51.24;99575.19;5112309;28;20116;-42
2022/06/07 05:29:48;;;;;;;2.22;0.80;;;;;;;15.58;50.01;99561.91;5093732;28;20061;-41
2022/06/07 05:32:24;;;;;;;;;;;;;;;15.79;49.14;99586.06;5123838;27;20051;-42
2022/06/07 05:34:53;;;;;;;6.18;0.98;;;;;;;15.79;48.11;99575.59;5110405;28;20454;-42
2022/06/07 05:37:22;;;;;;;4.40;1.00;;;;;;;15.93;47.88;99581.72;5123305;27;20035;-42
2022/06/07 05:39:58;;;;;;;3.50;1.23;;;;;;;16.04;47.33;99583.72;5112280;27;20146;-43
2022/06/07 05:42:24;;;;;;;6.50;0.90;;;;;;;16.13;47.13;99584.94;5112516;27;20061;-41
2022/06/07 05:44:50;;;;;;;2.83;1.20;;;;;;;16.24;46.63;99588.63;5116789;28;20038;-42
2022/06/07 05:47:17;;;;;;;2.17;0.80;;;;;;;16.36;46.60;99582.66;5130101;27;20051;-42
2022/06/07 05:49:48;;;;;;;2.95;1.05;;;;;;;16.52;47.01;99583.44;5128345;27;20043;-41
2022/06/07 05:52:19;;;;;;;7.38;0.90;;;;;;;16.65;46.80;99578.31;5116407;27;20039;-42
2022/06/07 05:54:46;;;;;;;15.30;1.15;;;;;;;16.76;46.23;99583.75;5123371;27;20043;-42
2022/06/07 05:57:12;;;;;;;1.88;0.80;;;;;;;16.86;45.18;99582.25;5125787;27;20088;-42
2022/06/07 05:59:40;;;;;;;3.42;0.80;;;;;;;16.99;45.00;99584.97;5117876;27;20426;-43
2022/06/07 06:02:09;;;;;;;1.95;1.00;;;;;;;17.10;44.74;99582.53;5102921;27;20071;-43
2022/06/07 06:04:38;;;;;;;6.57;1.88;;;;;;;17.24;44.65;99590.38;5115546;27;20040;-41
2022/06/07 06:07:04;;;;;;;2.05;0.90;;;;;;;17.34;44.02;99590.63;5133546;27;20494;-42
2022/06/07 06:12:21;;;;;;;4.97;1.27;;;;;;;17.46;42.28;99581.97;5130258;27;20054;-40
2022/06/07 06:15:13;;;;;;;2.65;1.10;;;;;;;17.60;42.39;99584.56;5127627;27;20059;-42
2022/06/07 06:17:40;;;;;;;3.38;1.20;;;;;;;17.64;41.90;99578.19;5130661;27;20426;-41
2022/06/07 06:20:15;;;;;;;7.40;0.90;;;;;;;17.71;40.08;99574.22;5114960;27;20054;-42
2022/06/07 06:22:46;;;;;;;6.68;0.80;;;;;;;17.86;40.61;99572.34;5148733;27;20042;-43
2022/06/07 06:25:13;;;;;;;3.22;0.90;;;;;;;17.94;40.11;99561.34;5128341;27;20035;-41
2022/06/07 06:27:39;;;;;;;3.15;0.80;;;;;;;18.18;40.67;99571.06;5133455;27;20126;-41
2022/06/07 06:30:10;;;;;;;6.32;0.93;;;;;;;18.39;40.78;99562.66;5131823;27;20067;-40
2022/06/07 06:32:43;;;;;;;3.22;0.68;;;;;;;18.50;39.39;99571.50;5128137;27;20043;-42
2022/06/07 06:35:14;;;;;;;1.73;0.60;;;;;;;18.76;39.57;99572.38;5108119;27;20031;-41
2022/06/07 06:37:41;;;;;;;2.33;0.70;;;;;;;19.23;38.83;99569.00;5135153;27;20039;-41
2022/06/07 06:40:08;;;;;;;5.55;0.70;;;;;;;19.94;37.40;99565.56;5133345;27;20412;-41
2022/06/07 06:42:43;;;;;;;2.20;0.75;;;;;;;20.81;34.78;99565.03;5115919;27;20047;-42
2022/06/07 06:45:35;;;;;;;2.30;1.05;;;;;;;22.10;33.23;99565.13;5121250;27;20047;-41
2022/06/07 06:48:09;;;;;;;1.35;0.60;;;;;;;23.46;31.29;99567.47;5128088;27;20043;-42
2022/06/07 06:50:36;;;;;;;3.20;0.70;;;;;;;24.63;29.83;99562.81;5125068;27;20031;-43
2022/06/07 06:53:03;;;;;;;5.28;0.90;;;;;;;25.60;27.05;99569.38;5129982;27;20043;-43
2022/06/07 06:55:30;;;;;;;5.55;1.27;;;;;;;26.60;25.50;99568.22;5149022;27;20035;-42
2022/06/07 06:57:56;;;;;;;14.98;2.65;;;;;;;27.74;25.15;99568.53;5089852;27;20437;-46
2022/06/07 07:00:22;;;;;;;7.75;1.98;;;;;;;28.84;24.14;99565.31;5118382;27;20039;-42
2022/06/07 07:02:49;;;;;;;2.88;1.02;;;;;;;29.75;22.49;99570.94;5119185;27;20503;-41
2022/06/07 07:05:16;;;;;;;3.35;0.93;;;;;;;30.71;22.17;99571.16;5148828;27;20268;-42
2022/06/07 07:07:47;;;;;;;2.65;0.95;;;;;;;31.71;19.95;99570.59;5123598;27;20046;-43
2022/06/07 07:10:19;;;;;;;0.88;0.80;;;;;;;32.48;18.48;99573.38;5129500;27;20039;-41
2022/06/07 07:12:46;;;;;;;2.45;1.23;;;;;;;33.04;18.38;99568.75;5110311;27;20111;-47
2022/06/07 07:15:13;;;;;;;2.03;0.90;;;;;;;33.84;17.65;99571.56;5106561;27;20036;-43
2022/06/07 07:17:51;;;;;;;4.45;1.58;;;;;;;34.59;17.16;99558.72;5128946;27;20078;-44
2022/06/07 07:20:19;;;;;;;1.63;1.20;;;;;;;35.18;16.25;99554.03;5095000;27;20031;-43
2022/06/07 07:22:48;;;;;;;1.95;0.98;;;;;;;35.83;15.20;99564.72;5131966;27;20122;-47
2022/06/07 07:25:15;;;;;;;3.58;0.93;;;;;;;36.42;15.43;99558.88;5105153;27;20403;-44
2022/06/07 07:27:42;;;;;;;3.35;1.13;;;;;;;36.89;14.89;99554.66;5128182;27;20130;-44
2022/06/07 07:30:09;;;;;;;3.42;1.13;;;;;;;37.23;14.89;99553.22;5115526;27;20034;-44
2022/06/07 07:32:37;;;;;;;3.38;0.98;;;;;;;37.49;13.34;99565.59;5128484;27;20067;-43
2022/06/07 07:35:04;;;;;;;2.45;1.10;;;;;;;37.48;13.19;99558.50;5092300;27;20047;-44
2022/06/07 07:37:37;;;;;;;3.33;1.20;;;;;;;37.50;13.62;99559.94;5129366;27;20039;-45
2022/06/07 07:40:12;;;;;;;6.63;4.22;;;;;;;37.76;13.60;99561.47;5103032;27;20678;-47
2022/06/07 07:42:39;;;;;;;2.83;1.10;;;;;;;38.40;12.98;99549.81;5144696;27;20073;-43
2022/06/07 07:45:10;;;;;;;2.97;1.10;;;;;;;39.01;13.08;99562.06;5126230;27;20511;-43
2022/06/07 07:47:37;;;;;;;4.57;1.20;;;;;;;39.28;12.51;99559.63;5106787;27;20050;-43
2022/06/07 07:50:05;;;;;;;8.23;1.20;;;;;;;39.63;12.58;99554.06;5125028;27;20074;-44
2022/06/07 07:52:32;;;;;;;2.17;1.30;;;;;;;39.97;11.79;99557.69;5131725;27;20047;-43
2022/06/07 07:55:04;;;;;;;3.88;1.20;;;;;;;40.19;11.31;99553.16;5131271;27;20047;-44
2022/06/07 07:57:31;;;;;;;10.15;1.38;;;;;;;39.96;11.65;99558.75;5111198;27;20499;-44
2022/06/07 07:59:58;;;;;;;3.70;1.17;;;;;;;40.25;11.46;99556.81;5144928;27;20046;-43
2022/06/07 08:02:24;;;;;;;6.50;1.08;;;;;;;40.11;10.83;99551.66;5125779;27;20436;-44
2022/06/07 08:05:10;;;;;;;9.68;1.30;;;;;;;40.35;11.48;99549.63;5130346;27;20051;-43
2022/06/07 08:07:35;;;;;;;;;;;;;;;40.59;10.65;99551.06;5117828;27;20035;-43
2022/06/07 08:10:02;;;;;;;3.42;0.90;;;;;;;40.61;10.67;99545.38;5129676;27;19922;-42
2022/06/07 08:12:29;;;;;;;1.40;1.30;;;;;;;40.61;10.88;99535.28;5132148;27;20046;-43
2022/06/07 08:14:55;;;;;;;2.40;1.30;;;;;;;40.37;10.91;99530.28;5127327;27;20050;-44
2022/06/07 08:17:21;;;;;;;5.72;1.10;;;;;;;40.72;10.85;99532.72;5132166;27;20047;-44
2022/06/07 08:19:47;;;;;;;2.42;1.30;;;;;;;41.08;10.06;99528.56;5126632;27;20479;-43
2022/06/07 08:22:13;;;;;;;3.30;1.10;;;;;;;41.26;9.98;99528.22;5131873;27;20050;-46
2022/06/07 08:24:39;;;;;;;2.63;1.27;;;;;;;41.47;9.91;99535.56;5131005;27;20046;-44
2022/06/07 08:27:05;;;;;;;4.43;2.35;;;;;;;41.63;10.57;99533.81;5129183;27;20048;-44
2022/06/07 08:29:30;;;;;;;4.03;1.30;;;;;;;41.29;10.33;99527.72;5127078;27;20036;-43
2022/06/07 08:31:56;;;;;;;1.42;1.30;;;;;;;40.30;10.20;99521.47;5125666;27;20077;-48
2022/06/07 08:39:50;;;;;;;3.58;1.33;;;;;;;41.19;9.71;99520.25;5128424;27;20049;-47
2022/06/07 08:42:19;;;;;;;2.47;1.38;;;;;;;41.40;10.19;99524.81;5131485;27;20088;-42
2022/06/07 08:44:49;;;;;;;3.50;1.42;;;;;;;40.02;10.15;99512.28;5129954;27;20047;-43
2022/06/07 08:47:27;;;;;;;2.40;1.40;;;;;;;40.07;10.44;99504.19;5128606;27;20035;-44
2022/06/07 08:49:56;;;;;;;2.45;1.50;;;;;;;41.00;10.18;99510.69;5127561;27;20070;-42
2022/06/07 08:52:29;;;;;;;5.03;1.45;;;;;;;41.52;9.62;99511.06;5116198;27;20075;-44
2022/06/07 08:54:58;;;;;;;7.88;1.63;;;;;;;41.82;10.09;99508.59;5127282;27;20046;-45
2022/06/07 08:57:36;;;;;;;6.32;1.52;;;;;;;42.49;10.08;99505.31;5124640;27;20081;-43
2022/06/07 09:00:14;;;;;;;3.95;1.58;;;;;;;42.43;9.19;99513.72;5129080;27;20043;-44
2022/06/07 09:03:02;;;;;;;1.67;1.50;;;;;;;41.91;9.49;99503.50;5124040;27;20031;-45
2022/06/07 09:05:27;;;;;;;5.95;1.90;;;;;;;42.24;9.81;99502.41;5127025;27;20435;-46
2022/06/07 09:07:55;;;;;;;2.03;1.50;;;;;;;42.09;9.54;99505.81;5131063;27;20043;-43
2022/06/07 09:13:19;;;;;;;4.65;2.67;;;;;;;42.86;10.00;99498.94;5129685;27;20039;-43
2022/06/07 09:15:47;;;;;;;3.97;1.85;;;;;;;43.22;9.57;99495.25;5125892;27;20418;-45
2022/06/07 09:18:15;;;;;;;3.17;2.60;;;;;;;43.51;9.14;99495.59;5131236;27;20039;-43
2022/06/07 09:20:45;;;;;;;5.68;1.70;;;;;;;43.40;9.37;99488.41;5125524;27;20043;-42
2022/06/07 09:23:29;;;;;;;2.17;1.70;;;;;;;42.91;9.41;99490.75;5125321;27;20167;-46
2022/06/07 09:25:57;;;;;;;52.97;4.78;;;;;;;43.14;9.71;99484.81;5125726;27;20043;-43
2022/06/07 09:28:29;;;;;;;6.28;2.83;;;;;;;43.38;9.67;99490.63;5125061;27;20037;-44
2022/06/07 09:31:21;;;;;;;4.85;1.95;;;;;;;43.55;9.70;99488.44;5126477;27;20039;-43
2022/06/07 09:33:53;;;;;;;4.35;1.88;;;;;;;43.84;9.74;99480.53;5121566;27;20051;-43
2022/06/07 09:36:25;;;;;;;3.83;1.95;;;;;;;44.04;9.45;99479.72;5126037;27;20494;-44
2022/06/07 09:38:55;;;;;;;4.38;1.90;;;;;;;43.83;9.17;99481.63;5124820;27;20047;-43
2022/06/07 09:41:37;;;;;;;2.22;1.70;;;;;;;42.31;9.26;99474.84;5126125;28;20044;-46
2022/06/07 09:44:29;;;;;;;3.92;1.70;;;;;;;42.09;9.98;99474.94;5127933;27;20048;-43
2022/06/07 09:47:00;;;;;;;1.63;1.52;;;;;;;42.32;9.70;99469.13;5124780;28;20043;-44
2022/06/07 09:49:40;;;;;;;3.92;1.83;;;;;;;42.70;10.15;99478.09;5129900;27;20515;-43
2022/06/07 09:52:13;;;;;;;4.53;1.77;;;;;;;42.91;9.70;99469.69;5130731;27;20050;-44
2022/06/07 09:54:41;;;;;;;4.32;1.67;;;;;;;42.71;9.50;99477.00;5129499;27;20525;-45
2022/06/07 09:57:38;;;;;;;4.65;1.80;;;;;;;42.93;9.60;99455.72;5118662;28;20050;-49
2022/06/07 10:00:43;;;;;;;4.20;2.00;;;;;;;43.31;9.96;99459.94;5109084;28;20050;-43
2022/06/07 10:04:19;;;;;;;2.00;1.80;;;;;;;43.65;9.97;99463.00;5133705;27;20047;-44
2022/06/07 10:06:57;;;;;;;3.70;2.00;;;;;;;43.81;9.69;99462.69;4975888;28;20041;-44
2022/06/07 10:09:37;;;;;;;3.17;2.00;;;;;;;43.88;9.02;99457.81;5113205;28;20047;-43
2022/06/07 10:12:35;;;;;;;4.72;1.80;;;;;;;43.62;9.19;99452.59;5130753;27;20042;-45
2022/06/07 10:15:13;;;;;;;3.33;1.88;;;;;;;43.49;9.51;99449.31;5131723;27;20391;-43
2022/06/07 10:17:38;;;;;;;3.00;1.98;;;;;;;43.40;9.15;99444.59;5125276;28;20039;-46
2022/06/07 10:20:46;;;;;;;8.48;1.85;;;;;;;42.69;9.51;99447.16;5127026;28;20586;-43
2022/06/07 10:23:11;;;;;;;1.88;1.77;;;;;;;42.96;9.55;99447.81;5116028;28;20103;-47
2022/06/07 10:26:11;;;;;;;6.18;2.47;;;;;;;43.39;9.37;99442.97;5127384;27;20460;-46
2022/06/07 10:28:45;;;;;;;3.53;1.90;;;;;;;43.47;9.53;99453.38;5130140;27;20126;-45
2022/06/07 10:31:29;;;;;;;2.17;1.98;;;;;;;43.63;9.38;99440.53;5124805;27;20534;-42
2022/06/07 10:34:00;;;;;;;2.08;1.98;;;;;;;43.61;9.51;99434.50;5110094;27;20146;-45
2022/06/07 10:37:01;;;;;;;5.28;2.38;;;;;;;43.75;9.36;99443.81;5127468;27;20043;-44
2022/06/07 10:39:38;;;;;;;3.97;2.50;;;;;;;43.76;9.21;99440.00;5111167;27;20181;-47
2022/06/07 10:42:13;;;;;;;3.78;2.33;;;;;;;43.45;9.19;99425.44;5132586;27;20525;-46
2022/06/07 10:44:48;;;;;;;2.47;2.10;;;;;;;42.81;8.89;99420.41;5132888;27;20101;-43
2022/06/07 10:47:56;;;;;;;3.72;2.00;;;;;;;42.28;8.97;99427.00;5131756;27;20047;-44
2022/06/07 10:50:32;;;;;;;6.90;2.17;;;;;;;42.83;8.70;99420.94;5121725;27;20046;-46
2022/06/07 10:53:20;;;;;;;1.90;1.80;;;;;;;43.29;8.82;99423.81;5126333;27;20035;-43
2022/06/07 10:55:48;;;;;;;5.28;2.00;;;;;;;42.83;8.98;99418.22;5127317;27;20035;-46
2022/06/07 10:58:34;;;;;;;2.88;2.10;;;;;;;42.64;9.03;99415.13;5125474;27;20047;-44
2022/06/07 11:01:06;;;;;;;8.50;2.60;;;;;;;43.02;9.14;99416.63;5111680;27;20054;-45
2022/06/07 11:03:44;;;;;;;3.95;1.70;;;;;;;42.61;8.89;99423.84;5130715;27;20079;-44
2022/06/07 11:09:39;;;;;;;2.10;2.00;;;;;;;42.85;9.19;99409.75;5133860;27;20418;-46
2022/06/07 11:12:17;;;;;;;2.08;1.77;;;;;;;42.70;8.61;99398.75;5132237;27;20039;-44
2022/06/07 11:15:09;;;;;;;4.22;1.98;;;;;;;42.68;9.31;99405.31;5129409;27;20035;-46
2022/06/07 11:17:48;;;;;;;2.60;2.40;;;;;;;42.96;9.48;99414.16;5103785;27;20687;-47
2022/06/07 11:20:15;;;;;;;2.90;2.30;;;;;;;43.33;9.33;99417.50;5111839;27;20031;-43
2022/06/07 11:22:53;;;;;;;3.13;2.83;;;;;;;43.52;9.32;99403.28;5149228;27;20537;-44
2022/06/07 11:25:41;;;;;;;4.28;2.00;;;;;;;43.28;8.72;99408.47;5125620;27;20043;-47
2022/06/07 11:28:15;;;;;;;2.65;1.80;;;;;;;43.01;8.82;99416.91;5129087;27;20514;-44
2022/06/07 11:30:44;;;;;;;2.25;2.08;;;;;;;43.27;8.75;99415.88;5125112;27;20035;-48
2022/06/07 11:33:32;;;;;;;2.80;2.00;;;;;;;43.52;8.75;99400.56;5127236;27;20050;-44
2022/06/07 11:36:13;;;;;;;3.28;1.85;;;;;;;42.66;8.37;99403.91;5142060;27;20097;-44
2022/06/07 11:39:18;;;;;;;3.17;1.70;;;;;;;41.92;9.13;99398.63;5131704;27;20426;-43
2022/06/07 11:41:47;;;;;;;1.80;1.70;;;;;;;41.64;9.27;99396.22;5122847;27;20054;-43
2022/06/07 11:44:16;;;;;;;3.88;1.70;;;;;;;42.06;9.56;99391.59;5130994;27;20078;-45
2022/06/07 11:46:51;;;;;;;1.95;1.70;;;;;;;42.17;8.11;99393.31;5119349;27;20061;-45
2022/06/07 11:49:20;;;;;;;4.13;1.52;;;;;;;41.39;7.71;99394.09;5128496;27;20027;-44
2022/06/07 11:52:11;;;;;;;4.88;1.50;;;;;;;40.89;8.32;99387.03;5130001;27;20050;-43
2022/06/07 11:54:46;;;;;;;3.80;1.52;;;;;;;41.26;8.61;99387.13;5125675;27;20049;-44
2022/06/07 11:57:46;;;;;;;2.88;1.70;;;;;;;41.80;8.75;99382.41;5109594;27;20572;-46
2022/06/07 12:00:18;;;;;;;8.93;1.70;;;;;;;42.07;8.96;99387.78;5119338;27;20035;-43
2022/06/07 12:02:56;;;;;;;4.55;1.50;;;;;;;42.21;9.09;99383.47;5118948;27;20044;-43
2022/06/07 12:05:28;;;;;;;4.25;3.17;;;;;;;42.05;9.10;99386.41;5120221;27;20456;-43
2022/06/07 12:07:59;;;;;;;3.25;1.85;;;;;;;42.19;8.63;99390.28;5120777;27;20054;-44
2022/06/07 12:10:33;;;;;;;2.78;1.55;;;;;;;41.96;8.28;99372.41;5126432;27;20456;-44
2022/06/07 12:13:00;;;;;;;3.10;1.50;;;;;;;42.00;8.75;99375.44;5131934;27;20043;-45
2022/06/07 12:15:28;;;;;;;;;;;;;;;41.89;8.57;99371.00;5099448;28;20526;-45
2022/06/07 12:18:00;;;;;;;5.25;2.40;;;;;;;42.09;8.80;99362.91;5094380;28;20311;-45